createdAt,value
2023-03-07T00:00:03.884Z,63.75
2023-03-07T00:03:06.843Z,63.56
2023-03-07T00:06:11.435Z,63.79
2023-03-07T00:09:13.084Z,63.64
2023-03-07T00:12:14.734Z,63.48
2023-03-07T00:15:16.544Z,63.33
2023-03-07T00:18:18.018Z,63.39
2023-03-07T00:21:21.237Z,63.14
2023-03-07T00:24:22.735Z,62.97
2023-03-07T00:27:24.246Z,62.86
2023-03-07T00:30:25.669Z,62.68
2023-03-07T00:33:27.773Z,62.60
2023-03-07T00:36:29.455Z,62.28
2023-03-07T00:39:30.942Z,62.30
2023-03-07T00:42:32.824Z,62.18
2023-03-07T00:45:34.309Z,62.19
2023-03-07T00:48:38.546Z,61.33
2023-03-07T00:51:40.307Z,61.54
2023-03-07T00:54:42.485Z,61.42
2023-03-07T00:57:44.111Z,61.68
2023-03-07T01:00:45.597Z,61.53
2023-03-07T01:03:53.349Z,62.02
2023-03-07T01:06:54.967Z,62.32
2023-03-07T01:09:56.444Z,61.87
2023-03-07T01:12:57.953Z,62.28
2023-03-07T01:16:17.831Z,62.49
2023-03-07T01:19:19.432Z,62.82
2023-03-07T01:22:21.211Z,62.89
2023-03-07T01:25:22.737Z,62.95
2023-03-07T01:28:24.348Z,63.09
2023-03-07T01:31:26.455Z,62.87
2023-03-07T01:34:27.965Z,63.31
2023-03-07T01:37:29.464Z,62.89
2023-03-07T01:40:31.666Z,63.07
2023-03-07T01:43:34.449Z,63.19
2023-03-07T01:46:57.984Z,63.37
2023-03-07T01:50:09.844Z,63.06
2023-03-07T01:53:11.651Z,63.09
2023-03-07T01:56:14.358Z,63.26
2023-03-07T01:59:27.887Z,63.43
2023-03-07T02:02:29.602Z,63.12
2023-03-07T02:05:38.140Z,63.09
2023-03-07T02:08:42.093Z,62.60
2023-03-07T02:11:45.151Z,63.15
2023-03-07T02:14:49.278Z,62.99
2023-03-07T02:17:51.547Z,62.38
2023-03-07T02:21:17.684Z,62.38
2023-03-07T02:24:33.618Z,62.18
2023-03-07T02:27:37.384Z,61.79
2023-03-07T02:30:53.301Z,62.10
2023-03-07T02:33:55.714Z,61.92
2023-03-07T02:37:11.178Z,62.15
2023-03-07T02:40:16.562Z,61.92
2023-03-07T02:43:18.454Z,62.70
2023-03-07T02:46:20.411Z,62.71
2023-03-07T02:49:22.245Z,62.81
2023-03-07T02:52:24.662Z,62.76
2023-03-07T02:55:26.327Z,63.17
2023-03-07T02:58:34.018Z,63.74
2023-03-07T03:01:36.275Z,63.62
2023-03-07T03:04:38.042Z,63.54
2023-03-07T03:07:39.560Z,63.69
2023-03-07T03:10:41.052Z,63.99
2023-03-07T03:13:42.942Z,63.59
2023-03-07T03:16:44.469Z,63.60
2023-03-07T03:19:45.929Z,63.80
2023-03-07T03:22:47.462Z,63.59
2023-03-07T03:26:07.604Z,63.90
2023-03-07T03:29:09.842Z,64.02
2023-03-07T03:32:11.515Z,64.01
2023-03-07T03:35:14.662Z,64.37
2023-03-07T03:38:16.987Z,63.81
2023-03-07T03:41:18.563Z,64.05
2023-03-07T03:44:22.686Z,64.00
2023-03-07T03:47:24.470Z,64.12
2023-03-07T03:50:26.064Z,64.00
2023-03-07T03:53:27.603Z,63.73
2023-03-07T03:56:29.746Z,64.15
2023-03-07T03:59:31.290Z,63.72
2023-03-07T04:02:34.051Z,63.95
2023-03-07T04:05:35.835Z,63.76
2023-03-07T04:08:38.561Z,63.86
2023-03-07T04:11:40.064Z,63.67
2023-03-07T04:14:41.881Z,63.66
2023-03-07T04:17:43.408Z,63.49
2023-03-07T04:20:45.788Z,63.52
2023-03-07T04:23:49.566Z,63.77
2023-03-07T04:26:51.455Z,63.78
2023-03-07T04:29:53.004Z,63.22
2023-03-07T04:32:56.497Z,63.48
2023-03-07T04:35:58.234Z,63.51
2023-03-07T04:38:59.873Z,63.32
2023-03-07T04:42:01.714Z,63.61
2023-03-07T04:45:09.427Z,63.21
2023-03-07T04:48:10.960Z,63.80
2023-03-07T04:51:13.161Z,63.51
2023-03-07T04:54:15.130Z,63.43
2023-03-07T04:57:17.252Z,63.72
2023-03-07T05:00:20.019Z,63.67
2023-03-07T05:03:24.358Z,64.12
2023-03-07T05:06:25.941Z,64.29
2023-03-07T05:09:27.626Z,64.28
2023-03-07T05:12:29.401Z,64.02
2023-03-07T05:15:31.867Z,64.27
2023-03-07T05:18:33.529Z,64.36
2023-03-07T05:21:35.647Z,64.30
2023-03-07T05:24:37.213Z,64.77
2023-03-07T05:27:39.429Z,64.47
2023-03-07T05:30:40.934Z,65.00
2023-03-07T05:33:42.668Z,64.66
2023-03-07T05:36:44.672Z,64.46
2023-03-07T05:39:46.565Z,65.07
2023-03-07T05:42:48.168Z,65.14
2023-03-07T05:45:50.331Z,64.98
2023-03-07T05:48:51.955Z,64.76
2023-03-07T05:51:53.554Z,64.74
2023-03-07T05:54:56.453Z,64.73
2023-03-07T05:57:58.020Z,65.43
2023-03-07T06:01:02.948Z,64.87
2023-03-07T06:04:05.229Z,65.06
2023-03-07T06:07:06.838Z,64.96
2023-03-07T06:10:09.347Z,64.80
2023-03-07T06:13:17.750Z,65.10
2023-03-07T06:16:19.317Z,64.72
2023-03-07T06:19:20.949Z,64.90
2023-03-07T06:22:24.020Z,64.88
2023-03-07T06:25:25.629Z,65.14
2023-03-07T06:28:27.730Z,64.69
2023-03-07T06:31:29.380Z,64.86
2023-03-07T06:34:31.383Z,64.66
2023-03-07T06:37:33.230Z,64.67
2023-03-07T06:40:36.371Z,64.49
2023-03-07T06:43:38.045Z,64.07
2023-03-07T06:46:39.629Z,64.11
2023-03-07T06:49:46.921Z,63.97
2023-03-07T06:52:51.571Z,63.71
2023-03-07T06:55:53.478Z,63.22
2023-03-07T06:58:55.487Z,63.24
2023-03-07T07:02:03.169Z,62.82
2023-03-07T07:05:06.074Z,61.75
2023-03-07T07:08:07.646Z,61.79
2023-03-07T07:11:09.375Z,61.81
2023-03-07T07:14:11.788Z,60.74
2023-03-07T07:17:15.027Z,61.42
2023-03-07T07:20:17.440Z,60.96
2023-03-07T07:23:20.600Z,60.62
2023-03-07T07:26:24.378Z,60.73
2023-03-07T07:29:26.265Z,60.50
2023-03-07T07:32:28.042Z,60.05
2023-03-07T07:35:29.742Z,60.03
2023-03-07T07:38:31.386Z,59.80
2023-03-07T07:41:34.031Z,59.25
2023-03-07T07:44:35.960Z,59.13
2023-03-07T07:47:43.588Z,59.21
2023-03-07T07:50:45.135Z,58.78
2023-03-07T07:53:46.786Z,58.86
2023-03-07T07:56:48.723Z,58.36
2023-03-07T07:59:50.422Z,57.88
2023-03-07T08:02:52.278Z,57.14
2023-03-07T08:05:53.743Z,57.23
2023-03-07T08:08:55.888Z,56.85
2023-03-07T08:11:57.313Z,56.27
2023-03-07T08:14:58.804Z,55.99
2023-03-07T08:18:00.318Z,55.92
2023-03-07T08:21:01.804Z,55.39
2023-03-07T08:24:04.062Z,54.53
2023-03-07T08:27:05.927Z,54.38
2023-03-07T08:30:07.998Z,54.57
2023-03-07T08:33:09.618Z,54.67
2023-03-07T08:36:11.143Z,54.79
2023-03-07T08:39:13.177Z,54.38
2023-03-07T08:42:14.688Z,54.71
2023-03-07T08:45:16.446Z,54.83
2023-03-07T08:48:17.922Z,54.62
2023-03-07T08:51:19.723Z,54.64
2023-03-07T08:54:21.207Z,54.57
2023-03-07T08:57:22.768Z,54.84
2023-03-07T09:00:25.133Z,55.13
2023-03-07T09:03:26.775Z,54.30
2023-03-07T09:06:28.921Z,55.13
2023-03-07T09:09:31.294Z,54.99
2023-03-07T09:12:34.252Z,54.68
2023-03-07T09:15:38.739Z,55.06
2023-03-07T09:18:40.240Z,55.32
2023-03-07T09:21:41.766Z,55.37
2023-03-07T09:24:43.307Z,55.04
2023-03-07T09:27:45.614Z,54.27
2023-03-07T09:30:47.111Z,54.97
2023-03-07T09:33:48.897Z,54.76
2023-03-07T09:36:51.579Z,54.64
2023-03-07T09:39:53.049Z,54.48
2023-03-07T09:43:16.313Z,54.35
2023-03-07T09:46:59.020Z,54.22
2023-03-07T09:50:08.391Z,54.22
2023-03-07T09:53:22.354Z,54.80
2023-03-07T09:56:40.615Z,53.55
2023-03-07T09:59:43.971Z,53.18
2023-03-07T10:02:51.231Z,53.87
2023-03-07T10:05:57.213Z,54.68
2023-03-07T10:09:00.562Z,54.59
2023-03-07T10:12:37.340Z,53.46
2023-03-07T10:16:04.287Z,53.49
2023-03-07T10:19:28.161Z,53.67
2023-03-07T10:22:53.009Z,53.86
2023-03-07T10:26:00.178Z,53.88
2023-03-07T10:29:15.108Z,53.61
2023-03-07T10:32:20.067Z,53.42
2023-03-07T10:35:24.430Z,53.91
2023-03-07T10:38:49.705Z,53.12
2023-03-07T10:41:51.520Z,53.10
2023-03-07T10:44:53.254Z,52.85
2023-03-07T10:47:54.718Z,52.72
2023-03-07T10:51:15.124Z,52.62
2023-03-07T10:54:33.606Z,52.38
2023-03-07T10:57:35.087Z,50.98
2023-03-07T11:00:36.599Z,51.43
2023-03-07T11:03:59.984Z,50.78
2023-03-07T11:07:01.462Z,50.24
2023-03-07T11:10:36.720Z,49.14
2023-03-07T11:13:38.186Z,47.69
2023-03-07T11:16:50.474Z,48.29
2023-03-07T11:19:53.979Z,47.98
2023-03-07T11:23:23.284Z,47.82
2023-03-07T11:26:24.745Z,47.35
2023-03-07T11:29:28.373Z,46.82
2023-03-07T11:32:29.926Z,47.29
2023-03-07T11:35:46.441Z,47.39
2023-03-07T11:39:06.732Z,47.22
2023-03-07T11:42:23.958Z,47.22
2023-03-07T11:45:32.156Z,46.71
2023-03-07T11:48:51.314Z,47.40
2023-03-07T11:52:16.053Z,47.29
2023-03-07T11:55:36.216Z,46.85
2023-03-07T11:58:55.852Z,45.94
2023-03-07T12:01:59.848Z,45.65
2023-03-07T12:05:13.029Z,45.63
2023-03-07T12:08:37.728Z,44.92
2023-03-07T12:11:47.617Z,45.24
2023-03-07T12:15:00.991Z,45.44
2023-03-07T12:18:34.065Z,44.95
2023-03-07T12:21:57.230Z,45.29
2023-03-07T12:25:19.517Z,45.21
2023-03-07T12:28:21.043Z,46.09
2023-03-07T12:31:34.533Z,45.18
2023-03-07T12:34:44.168Z,44.25
2023-03-07T12:37:55.731Z,45.36
2023-03-07T12:41:05.776Z,45.44
2023-03-07T12:44:16.541Z,45.09
2023-03-07T12:47:33.532Z,45.14
2023-03-07T12:50:41.377Z,45.21
2023-03-07T12:53:49.279Z,45.19
2023-03-07T12:57:06.717Z,45.67
2023-03-07T13:00:12.614Z,45.22
2023-03-07T13:03:22.777Z,44.55
2023-03-07T13:06:25.666Z,44.08
2023-03-07T13:09:28.143Z,43.71
2023-03-07T13:12:37.838Z,44.74
2023-03-07T13:16:01.837Z,45.20
2023-03-07T13:19:31.026Z,45.83
2023-03-07T13:22:32.419Z,45.38
2023-03-07T13:25:49.143Z,45.49
2023-03-07T13:28:51.562Z,45.34
2023-03-07T13:31:53.110Z,45.28
2023-03-07T13:34:54.730Z,45.18
2023-03-07T13:38:23.909Z,45.24
2023-03-07T13:41:46.915Z,44.95
2023-03-07T13:44:48.442Z,45.83
2023-03-07T13:47:49.948Z,45.76
2023-03-07T13:50:51.374Z,46.18
2023-03-07T13:53:56.208Z,45.68
2023-03-07T13:56:57.720Z,45.63
2023-03-07T14:00:00.716Z,44.71
2023-03-07T14:03:02.722Z,45.29
2023-03-07T14:06:13.420Z,45.69
2023-03-07T14:09:19.748Z,45.63
2023-03-07T14:13:01.018Z,45.62
2023-03-07T14:16:13.071Z,46.21
2023-03-07T14:19:37.137Z,46.16
2023-03-07T14:23:02.574Z,45.88
2023-03-07T14:26:37.042Z,45.96
2023-03-07T14:29:49.329Z,46.97
2023-03-07T14:32:51.991Z,47.38
2023-03-07T14:35:53.531Z,47.01
2023-03-07T14:38:58.106Z,46.63
2023-03-07T14:42:12.294Z,46.22
2023-03-07T14:45:36.392Z,46.23
2023-03-07T14:48:54.909Z,46.33
2023-03-07T14:51:58.076Z,46.84
2023-03-07T14:55:02.047Z,47.05
2023-03-07T14:58:04.315Z,47.43
2023-03-07T15:01:14.375Z,47.80
2023-03-07T15:04:27.894Z,47.78
2023-03-07T15:07:29.435Z,47.61
2023-03-07T15:10:30.817Z,47.76
2023-03-07T15:13:47.478Z,47.79
2023-03-07T15:16:57.436Z,47.85
2023-03-07T15:20:18.963Z,48.10
2023-03-07T15:23:24.116Z,47.77
2023-03-07T15:26:27.725Z,47.94
2023-03-07T15:29:31.335Z,48.16
2023-03-07T15:32:38.253Z,47.81
2023-03-07T15:35:40.109Z,48.55
2023-03-07T15:38:44.681Z,48.24
2023-03-07T15:42:06.280Z,48.52
2023-03-07T15:45:28.248Z,48.72
2023-03-07T15:48:48.721Z,48.24
2023-03-07T15:51:54.248Z,47.93
2023-03-07T15:54:57.889Z,48.43
2023-03-07T15:58:05.274Z,48.29
2023-03-07T16:01:18.164Z,47.51
2023-03-07T16:04:31.677Z,47.10
2023-03-07T16:07:33.246Z,46.71
2023-03-07T16:10:34.726Z,47.55
2023-03-07T16:13:42.348Z,47.91
2023-03-07T16:16:44.430Z,48.75
2023-03-07T16:19:46.072Z,49.54
2023-03-07T16:22:47.832Z,49.50
2023-03-07T16:25:49.506Z,49.79
2023-03-07T16:28:52.772Z,49.95
2023-03-07T16:31:54.272Z,49.86
2023-03-07T16:34:55.754Z,50.52
2023-03-07T16:37:57.320Z,50.48
2023-03-07T16:41:00.956Z,50.21
2023-03-07T16:44:02.630Z,50.66
2023-03-07T16:47:22.178Z,50.08
2023-03-07T16:50:29.559Z,48.55
2023-03-07T16:53:31.377Z,47.44
2023-03-07T16:56:36.891Z,48.56
2023-03-07T16:59:42.035Z,49.90
2023-03-07T17:02:45.244Z,50.51
2023-03-07T17:05:46.825Z,51.25
2023-03-07T17:08:50.758Z,51.46
2023-03-07T17:11:52.724Z,51.47
2023-03-07T17:14:56.548Z,52.06
2023-03-07T17:17:59.480Z,52.28
2023-03-07T17:21:00.942Z,52.99
2023-03-07T17:24:02.437Z,52.97
2023-03-07T17:27:04.029Z,52.62
2023-03-07T17:30:05.953Z,53.37
2023-03-07T17:33:10.463Z,53.20
2023-03-07T17:36:12.170Z,52.78
2023-03-07T17:39:13.803Z,53.50
2023-03-07T17:42:15.282Z,53.07
2023-03-07T17:45:17.495Z,52.85
2023-03-07T17:48:18.981Z,53.29
2023-03-07T17:51:20.487Z,53.55
2023-03-07T17:54:21.984Z,53.52
2023-03-07T17:57:23.569Z,53.54
2023-03-07T18:00:25.645Z,52.79
2023-03-07T18:03:27.269Z,52.98
2023-03-07T18:10:51.961Z,52.79
2023-03-07T18:13:53.717Z,53.23
2023-03-07T18:16:55.209Z,53.30
2023-03-07T18:19:56.791Z,53.39
2023-03-07T18:22:58.252Z,53.22
2023-03-07T18:26:05.498Z,52.60
2023-03-07T18:29:07.266Z,52.68
2023-03-07T18:32:08.776Z,52.97
2023-03-07T18:35:11.367Z,53.08
2023-03-07T18:38:12.857Z,53.75
2023-03-07T18:41:16.903Z,53.44
2023-03-07T18:44:19.596Z,53.58
2023-03-07T18:47:21.179Z,54.11
2023-03-07T18:50:22.895Z,53.52
2023-03-07T18:53:24.709Z,53.57
2023-03-07T18:56:27.377Z,53.36
2023-03-07T18:59:28.849Z,53.58
2023-03-07T19:02:30.412Z,53.23
2023-03-07T19:05:32.144Z,53.72
2023-03-07T19:08:34.491Z,53.35
2023-03-07T19:11:36.233Z,53.92
2023-03-07T19:14:38.388Z,54.10
2023-03-07T19:17:41.517Z,54.63
2023-03-07T19:20:43.015Z,54.58
2023-03-07T19:23:45.152Z,54.38
2023-03-07T19:26:48.773Z,54.36
2023-03-07T19:29:50.324Z,54.95
2023-03-07T19:32:51.930Z,54.85
2023-03-07T19:36:11.641Z,55.50
2023-03-07T19:39:20.369Z,54.80
2023-03-07T19:42:24.564Z,55.13
2023-03-07T19:45:26.970Z,55.38
2023-03-07T19:48:29.286Z,54.94
2023-03-07T19:51:30.760Z,55.06
2023-03-07T19:54:32.266Z,55.75
2023-03-07T19:57:36.324Z,55.03
2023-03-07T20:00:39.690Z,55.29
2023-03-07T20:03:41.143Z,55.29
2023-03-07T20:06:43.857Z,55.16
2023-03-07T20:09:45.663Z,55.52
2023-03-07T20:12:47.664Z,55.51
2023-03-07T20:15:52.600Z,55.33
2023-03-07T20:18:55.662Z,55.40
2023-03-07T20:21:57.167Z,56.54
2023-03-07T20:24:58.620Z,56.52
2023-03-07T20:28:00.217Z,57.20
2023-03-07T20:31:04.111Z,57.41
2023-03-07T20:34:06.479Z,58.20
2023-03-07T20:37:08.039Z,58.99
2023-03-07T20:40:10.174Z,59.28
2023-03-07T20:43:11.660Z,59.13
2023-03-07T20:46:14.738Z,59.23
2023-03-07T20:49:16.359Z,59.89
2023-03-07T20:52:17.915Z,59.30
2023-03-07T20:55:20.122Z,60.07
2023-03-07T20:58:22.107Z,59.66
2023-03-07T21:01:25.876Z,60.18
2023-03-07T21:04:27.680Z,59.87
2023-03-07T21:07:29.302Z,59.95
2023-03-07T21:10:30.829Z,59.66
2023-03-07T21:13:34.914Z,59.78
2023-03-07T21:16:36.441Z,60.62
2023-03-07T21:19:38.175Z,60.10
2023-03-07T21:22:40.608Z,60.32
2023-03-07T21:25:42.270Z,60.72
2023-03-07T21:28:44.153Z,60.68
2023-03-07T21:31:45.809Z,60.89
2023-03-07T21:34:47.282Z,61.15
2023-03-07T21:37:48.778Z,60.74
2023-03-07T21:40:50.771Z,60.62
2023-03-07T21:43:56.306Z,61.42
2023-03-07T21:46:57.881Z,61.09
2023-03-07T21:49:59.346Z,61.08
2023-03-07T21:53:00.806Z,61.22
2023-03-07T21:56:08.323Z,61.29
2023-03-07T21:59:10.046Z,61.21
2023-03-07T22:02:11.920Z,61.31
2023-03-07T22:05:13.396Z,61.46
2023-03-07T22:08:20.237Z,61.44
2023-03-07T22:11:22.149Z,61.65
2023-03-07T22:14:23.675Z,61.59
2023-03-07T22:17:26.232Z,61.65
2023-03-07T22:20:27.726Z,61.39
2023-03-07T22:23:29.172Z,61.06
2023-03-07T22:26:31.971Z,61.16
2023-03-07T22:29:33.582Z,61.25
2023-03-07T22:32:35.244Z,60.87
2023-03-07T22:35:36.917Z,60.75
2023-03-07T22:38:38.940Z,60.82
2023-03-07T22:41:40.575Z,60.73
2023-03-07T22:44:42.054Z,60.91
2023-03-07T22:47:43.541Z,60.76
2023-03-07T22:50:44.991Z,60.42
2023-03-07T22:53:46.891Z,60.68
2023-03-07T22:56:48.569Z,60.17
2023-03-07T22:59:50.148Z,60.44
2023-03-07T23:02:51.745Z,60.10
2023-03-07T23:05:58.676Z,60.13
2023-03-07T23:09:01.949Z,60.29
2023-03-07T23:12:03.543Z,60.27
2023-03-07T23:15:05.455Z,60.56
2023-03-07T23:18:06.937Z,60.58
2023-03-07T23:21:11.166Z,60.54
2023-03-07T23:24:12.680Z,60.12
2023-03-07T23:27:14.106Z,60.44
2023-03-07T23:30:17.418Z,60.48
2023-03-07T23:33:18.915Z,60.66
2023-03-07T23:36:20.377Z,60.95
2023-03-07T23:39:21.843Z,61.00
2023-03-07T23:42:23.405Z,61.32
2023-03-07T23:45:25.549Z,61.69
2023-03-07T23:48:26.978Z,61.77
2023-03-07T23:51:28.464Z,61.64
2023-03-07T23:54:29.922Z,62.21
2023-03-07T23:57:31.436Z,62.74
